Time;durP1;ratioP1;P1;durP2;ratioP2;P2;SDS_P1;SDS_P2;PMS_P1;PMS_P2;Temp;Humidity;BMP_temperature;BMP_pressure;BME280_temperature;BME280_humidity;BME280_pressure;Samples;Min_cycle;Max_cycle;Signal;HPM_P1;HPM_P2
2021/05/18 00:01:01;;;;;;;66.65;40.30;;;17.00;91.10;;;;;;4974953;28;20018;-72
2021/05/18 00:03:27;;;;;;;86.07;54.05;;;17.00;91.10;;;;;;4974770;28;20030;-73
2021/05/18 00:05:56;;;;;;;74.25;50.33;;;17.00;91.10;;;;;;4974989;28;20026;-71
2021/05/18 00:08:24;;;;;;;77.57;41.10;;;17.00;91.20;;;;;;4974655;28;20023;-73
2021/05/18 00:13:41;;;;;;;40.70;31.23;;;17.00;91.00;;;;;;4974756;28;20038;-72
2021/05/18 00:16:08;;;;;;;62.92;42.10;;;16.90;90.90;;;;;;4974370;28;20520;-70
2021/05/18 00:18:35;;;;;;;32.72;24.98;;;16.80;91.00;;;;;;4974522;28;20034;-71
2021/05/18 00:21:01;;;;;;;30.60;24.10;;;16.70;91.10;;;;;;4974229;28;20081;-72
2021/05/18 00:23:27;;;;;;;26.25;21.25;;;16.70;91.30;;;;;;4974343;28;20023;-71
2021/05/18 00:25:53;;;;;;;26.73;21.33;;;16.60;91.40;;;;;;4974289;28;20027;-72
2021/05/18 00:28:19;;;;;;;26.17;22.25;;;16.50;91.50;;;;;;4974154;28;20053;-72
2021/05/18 00:30:45;;;;;;;27.00;20.52;;;16.50;91.70;;;;;;4974274;28;20023;-72
2021/05/18 00:33:19;;;;;;;29.08;22.42;;;16.50;91.90;;;;;;4974384;28;20034;-72
2021/05/18 00:35:46;;;;;;;27.02;22.90;;;16.60;92.10;;;;;;4974179;28;20054;-71
2021/05/18 00:38:13;;;;;;;26.70;20.85;;;16.60;92.20;;;;;;4973967;28;20561;-71
2021/05/18 00:40:40;;;;;;;32.80;24.23;;;16.70;92.30;;;;;;4974049;28;20066;-71
2021/05/18 00:43:06;;;;;;;31.52;24.55;;;16.70;92.30;;;;;;4974081;28;20018;-71
2021/05/18 00:45:38;;;;;;;31.55;26.02;;;16.80;92.20;;;;;;4974051;28;20072;-71
2021/05/18 00:48:07;;;;;;;35.75;26.27;;;16.80;92.20;;;;;;4974005;28;20030;-71
2021/05/18 00:50:35;;;;;;;33.58;24.20;;;16.80;92.20;;;;;;4973756;28;20027;-70
2021/05/18 00:53:01;;;;;;;37.28;26.00;;;16.80;92.10;;;;;;4972476;28;20031;-71
2021/05/18 01:00:37;;;;;;;36.50;26.45;;;16.80;92.10;;;;;;4973809;28;20033;-71
2021/05/18 01:03:03;;;;;;;41.00;26.35;;;16.80;92.00;;;;;;4972891;28;20028;-71
2021/05/18 01:08:13;;;;;;;38.30;26.77;;;16.70;92.00;;;;;;4973598;28;20502;-72
2021/05/18 01:10:40;;;;;;;36.55;28.08;;;16.70;92.00;;;;;;4973611;28;20058;-71
2021/05/18 01:13:06;;;;;;;35.05;26.08;;;16.70;92.00;;;;;;5004813;28;20477;-71
2021/05/18 01:15:32;;;;;;;36.22;27.13;;;16.70;92.00;;;;;;4973626;28;20108;-71
2021/05/18 01:17:58;;;;;;;45.90;34.78;;;16.70;91.90;;;;;;4973725;28;20065;-71
2021/05/18 01:20:24;;;;;;;39.40;28.52;;;16.60;91.80;;;;;;4973592;28;20026;-71
2021/05/18 01:22:50;;;;;;;34.92;25.52;;;16.60;91.80;;;;;;4973283;28;20130;-71
2021/05/18 01:25:19;;;;;;;34.03;27.25;;;16.60;91.90;;;;;;4973407;28;20031;-71
2021/05/18 01:27:45;;;;;;;34.17;26.13;;;16.60;92.00;;;;;;4973161;28;20043;-71
2021/05/18 01:30:12;;;;;;;27.42;23.60;;;16.60;92.00;;;;;;4973302;28;20026;-71
2021/05/18 01:32:42;;;;;;;40.45;24.17;;;16.60;92.10;;;;;;4973266;28;20023;-71
2021/05/18 01:35:12;;;;;;;24.13;20.33;;;16.60;92.10;;;;;;4973255;28;20073;-71
2021/05/18 01:37:40;;;;;;;22.98;17.77;;;16.60;92.10;;;;;;4973157;28;20031;-72
2021/05/18 01:42:46;;;;;;;26.48;20.90;;;16.70;92.20;;;;;;4973187;28;20034;-72
2021/05/18 01:43:03;;;;;;;21.05;17.98;;;16.70;92.10;;;;;;4973034;28;20061;-72
2021/05/18 01:45:30;;;;;;;17.95;15.70;;;16.70;92.10;;;;;;4973035;28;20031;-71
2021/05/18 01:47:59;;;;;;;21.17;17.23;;;16.70;92.10;;;;;;4973075;28;20031;-71
2021/05/18 01:50:27;;;;;;;19.17;16.38;;;16.70;92.10;;;;;;4972930;28;20023;-72
2021/05/18 01:52:54;;;;;;;18.20;16.30;;;16.70;92.20;;;;;;4972868;28;20027;-72
2021/05/18 01:55:49;;;;;;;19.45;17.35;;;16.70;92.20;;;;;;4973007;28;20027;-72
2021/05/18 01:58:06;;;;;;;18.58;15.77;;;16.70;92.10;;;;;;4972505;28;20035;-72
2021/05/18 02:00:36;;;;;;;18.55;16.73;;;16.70;92.20;;;;;;5004200;28;20035;-72
2021/05/18 02:03:02;;;;;;;18.42;16.48;;;16.70;92.20;;;;;;4972645;28;20038;-72
2021/05/18 02:05:31;;;;;;;21.80;18.25;;;16.70;92.20;;;;;;4972768;28;20023;-72
2021/05/18 02:07:58;;;;;;;19.63;17.45;;;16.60;92.20;;;;;;4972819;28;20019;-73
2021/05/18 02:10:25;;;;;;;25.30;18.73;;;16.60;92.20;;;;;;4973126;28;20081;-72
2021/05/18 02:12:52;;;;;;;26.38;19.17;;;16.70;92.30;;;;;;4972666;28;20018;-72
2021/05/18 02:26:15;;;;;;;22.70;19.83;;;16.30;92.00;;;;;;4976794;28;20065;-71
2021/05/18 02:28:41;;;;;;;28.33;20.58;;;16.30;92.20;;;;;;4976400;28;20110;-71
2021/05/18 02:31:07;;;;;;;21.60;18.73;;;16.30;92.20;;;;;;4976611;28;20712;-71
2021/05/18 02:33:33;;;;;;;21.30;18.15;;;16.30;92.40;;;;;;4976307;28;20094;-72
2021/05/18 02:35:59;;;;;;;21.92;19.15;;;16.30;92.60;;;;;;4976156;28;20057;-71
2021/05/18 02:38:25;;;;;;;24.80;19.00;;;16.40;92.70;;;;;;4976164;28;20442;-71
2021/05/18 02:40:50;;;;;;;26.98;22.80;;;16.40;92.50;;;;;;4974898;28;20022;-72
2021/05/18 02:43:22;;;;;;;34.78;24.70;;;16.40;92.50;;;;;;4974879;28;20053;-71
2021/05/18 02:46:18;;;;;;;29.15;25.75;;;16.30;91.90;;;;;;4976289;28;20030;-71
2021/05/18 02:51:20;;;;;;;29.58;23.17;;;16.20;92.20;;;;;;4976117;28;20050;-71
2021/05/18 02:53:46;;;;;;;23.92;18.73;;;16.20;92.40;;;;;;4975911;28;20062;-76
2021/05/18 02:58:54;;;;;;;26.05;21.88;;;16.20;92.70;;;;;;4975825;28;20023;-76
2021/05/18 03:01:20;;;;;;;26.27;19.65;;;16.30;92.70;;;;;;4975866;28;20034;-76
2021/05/18 03:03:46;;;;;;;28.00;19.70;;;16.30;92.80;;;;;;4975713;28;20037;-77
2021/05/18 03:06:12;;;;;;;23.92;17.50;;;16.40;92.90;;;;;;5007020;28;20030;-77
2021/05/18 03:08:39;;;;;;;16.38;13.77;;;16.40;93.00;;;;;;4975529;28;20081;-76
2021/05/18 03:11:08;;;;;;;20.05;14.30;;;16.50;93.10;;;;;;4975818;28;20082;-76
2021/05/18 03:13:33;;;;;;;19.13;13.48;;;16.60;93.10;;;;;;4975518;28;20026;-76
2021/05/18 03:15:59;;;;;;;18.10;14.10;;;16.70;93.00;;;;;;4975565;28;20084;-76
2021/05/18 03:18:25;;;;;;;20.67;15.25;;;16.80;92.80;;;;;;4975491;28;20089;-76
2021/05/18 03:20:50;;;;;;;20.67;14.88;;;16.90;92.70;;;;;;4975415;28;20049;-76
2021/05/18 03:23:16;;;;;;;16.77;13.43;;;16.90;92.50;;;;;;4975683;28;20038;-76
2021/05/18 03:25:42;;;;;;;18.92;14.10;;;17.00;92.40;;;;;;4975350;28;20065;-76
2021/05/18 03:28:07;;;;;;;19.15;15.00;;;17.00;92.30;;;;;;4974375;28;20512;-77
2021/05/18 03:35:44;;;;;;;16.27;12.88;;;17.10;91.90;;;;;;4975463;28;20034;-76
2021/05/18 03:40:46;;;;;;;15.38;12.10;;;17.10;91.80;;;;;;4974756;28;20019;-72
2021/05/18 03:48:58;;;;;;;14.05;12.38;;;17.20;91.60;;;;;;4974842;28;20029;-72
2021/05/18 03:54:25;;;;;;;15.80;11.95;;;17.20;91.50;;;;;;4974582;28;20505;-77
2021/05/18 04:05:15;;;;;;;15.75;11.30;;;17.20;91.40;;;;;;4974576;28;20038;-77
2021/05/18 04:18:48;;;;;;;28.52;16.73;;;17.40;91.40;;;;;;4974599;28;20045;-77
2021/05/18 04:21:24;;;;;;;15.10;10.90;;;17.50;91.40;;;;;;4974309;28;20116;-76
2021/05/18 04:53:35;;;;;;;13.35;11.95;;;17.70;90.80;;;;;;4932965;29;20032;-72
2021/05/18 05:07:00;;;;;;;15.52;11.57;;;17.90;90.90;;;;;;4932699;29;20111;-72
2021/05/18 05:14:47;;;;;;;14.93;11.27;;;18.10;91.10;;;;;;4894379;29;20037;-73
2021/05/18 05:17:13;;;;;;;17.10;13.52;;;18.30;90.90;;;;;;4893681;29;20052;-73
2021/05/18 05:19:38;;;;;;;15.27;12.00;;;18.30;90.70;;;;;;4893743;29;20076;-73
2021/05/18 05:22:05;;;;;;;12.88;10.93;;;18.40;90.50;;;;;;4905932;29;20040;-72
2021/05/18 05:24:32;;;;;;;16.35;13.43;;;18.40;90.50;;;;;;4896283;29;20036;-74
2021/05/18 05:26:58;;;;;;;14.05;11.43;;;18.50;90.40;;;;;;4912260;29;20027;-73
2021/05/18 05:29:24;;;;;;;13.70;11.25;;;18.50;90.30;;;;;;4912391;29;20522;-73
2021/05/18 05:31:51;;;;;;;17.95;10.20;;;18.50;90.10;;;;;;4896763;29;20402;-72
2021/05/18 05:34:18;;;;;;;16.20;12.10;;;18.60;89.90;;;;;;4912555;29;20112;-73
2021/05/18 05:36:45;;;;;;;18.48;13.93;;;18.50;88.90;;;;;;4912565;29;20036;-73
2021/05/18 05:39:22;;;;;;;18.40;14.30;;;18.40;88.80;;;;;;4899235;29;20038;-73
2021/05/18 05:41:48;;;;;;;19.50;14.43;;;18.30;89.20;;;;;;4912848;29;20464;-73
2021/05/18 05:44:14;;;;;;;15.65;13.10;;;18.30;89.90;;;;;;4912371;29;20036;-73
2021/05/18 05:46:40;;;;;;;15.07;12.93;;;18.30;90.10;;;;;;4912756;29;20051;-74
2021/05/18 05:49:05;;;;;;;17.08;13.25;;;18.40;90.30;;;;;;4938743;28;20080;-77
2021/05/18 05:51:31;;;;;;;16.35;13.02;;;18.60;90.40;;;;;;4979136;28;20031;-76
2021/05/18 05:53:59;;;;;;;16.75;11.85;;;18.90;90.50;;;;;;4978947;28;20118;-77
2021/05/18 05:56:26;;;;;;;16.52;12.77;;;19.30;90.30;;;;;;4977664;28;20050;-77
2021/05/18 05:58:52;;;;;;;12.02;10.63;;;19.40;88.80;;;;;;4978808;28;20022;-77
2021/05/18 06:01:17;;;;;;;12.45;9.23;;;19.60;88.10;;;;;;4978944;28;20443;-77
2021/05/18 06:03:44;;;;;;;12.32;10.15;;;19.90;87.40;;;;;;4978925;28;20058;-78
2021/05/18 06:06:10;;;;;;;11.13;8.13;;;20.10;86.50;;;;;;4979194;28;20106;-78
2021/05/18 06:08:38;;;;;;;10.55;7.63;;;20.40;86.40;;;;;;4978855;28;20118;-78
2021/05/18 06:17:09;;;;;;;9.50;8.00;;;21.30;82.20;;;;;;4977609;28;20367;-78
2021/05/18 06:48:08;;;;;;;11.50;7.22;;;22.60;73.80;;;;;;4975508;28;20424;-77
2021/05/18 06:50:34;;;;;;;9.98;6.30;;;23.00;73.90;;;;;;5008940;28;20112;-78
2021/05/18 06:53:00;;;;;;;8.15;6.38;;;24.10;75.00;;;;;;4975955;28;20358;-77
2021/05/18 06:55:32;;;;;;;11.00;6.10;;;25.40;72.30;;;;;;4978273;28;20026;-77
2021/05/18 06:58:09;;;;;;;14.05;6.20;;;26.40;69.90;;;;;;4978032;28;20022;-77
2021/05/18 07:00:40;;;;;;;7.78;5.22;;;27.50;66.20;;;;;;4977706;28;20023;-77
2021/05/18 07:03:11;;;;;;;8.70;6.50;;;28.30;63.50;;;;;;4974276;28;20088;-78
2021/05/18 07:10:38;;;;;;;8.90;5.50;;;29.20;58.60;;;;;;4974765;28;20406;-77
2021/05/18 07:13:03;;;;;;;8.13;5.97;;;29.30;57.40;;;;;;4974805;28;20034;-78
2021/05/18 07:15:29;;;;;;;7.88;6.13;;;29.20;56.80;;;;;;4974837;28;20023;-77
2021/05/18 07:17:56;;;;;;;12.82;6.88;;;29.40;56.60;;;;;;4974484;28;20030;-78
2021/05/18 07:20:22;;;;;;;10.95;6.13;;;29.60;56.20;;;;;;4974690;28;20035;-77
2021/05/18 07:22:56;;;;;;;12.35;5.97;;;30.10;56.10;;;;;;4974537;28;20022;-77
2021/05/18 07:25:23;;;;;;;12.45;6.15;;;30.60;54.80;;;;;;4974373;28;20544;-76
2021/05/18 07:27:50;;;;;;;6.28;4.30;;;30.90;54.80;;;;;;4972768;28;20043;-77
2021/05/18 07:30:16;;;;;;;7.82;4.55;;;31.50;54.00;;;;;;4974564;28;20045;-77
2021/05/18 07:32:43;;;;;;;9.80;4.32;;;32.10;52.40;;;;;;4974274;28;20023;-78
2021/05/18 07:35:11;;;;;;;8.23;4.63;;;32.50;51.00;;;;;;4974017;28;20026;-78
2021/05/18 07:37:37;;;;;;;9.82;4.50;;;32.90;50.10;;;;;;4974324;28;20023;-76
2021/05/18 07:40:04;;;;;;;5.32;4.07;;;33.20;49.50;;;;;;4973859;28;20019;-78
2021/05/18 07:42:30;;;;;;;12.02;4.22;;;33.40;48.60;;;;;;4974185;28;20126;-78
2021/05/18 07:44:56;;;;;;;7.15;4.00;;;33.50;48.20;;;;;;4974140;28;20118;-78
2021/05/18 07:47:24;;;;;;;7.35;4.32;;;33.60;48.10;;;;;;4973702;28;20077;-77
2021/05/18 07:49:52;;;;;;;11.20;4.38;;;33.70;47.50;;;;;;4972255;28;20023;-76
2021/05/18 08:05:51;;;;;;;4.10;3.42;;;33.00;46.10;;;;;;4959238;28;20118;-75
2021/05/18 08:08:18;;;;;;;6.97;3.70;;;32.90;45.80;;;;;;4960439;28;20090;-75
2021/05/18 08:10:50;;;;;;;7.60;3.22;;;32.60;46.00;;;;;;4972731;28;20026;-73
2021/05/18 08:13:21;;;;;;;7.28;3.10;;;32.40;46.20;;;;;;4972581;28;20034;-71
2021/05/18 08:16:50;;;;;;;12.80;3.30;;;32.20;46.10;;;;;;4972297;28;20363;-72
2021/05/18 10:36:05;;;;;;;7.85;5.55;;;26.60;53.00;;;;;;4971719;28;20050;-73
2021/05/18 10:38:45;;;;;;;9.48;5.47;;;26.50;52.90;;;;;;5006367;28;20039;-73
2021/05/18 10:41:23;;;;;;;9.45;5.80;;;26.40;52.80;;;;;;4974769;28;20027;-72
2021/05/18 10:43:57;;;;;;;10.50;6.57;;;26.40;53.30;;;;;;4974470;28;20026;-73
2021/05/18 10:46:26;;;;;;;6.15;5.15;;;26.30;53.50;;;;;;4974614;28;20473;-72
2021/05/18 10:49:07;;;;;;;9.95;5.00;;;26.30;53.70;;;;;;4975016;28;20063;-74
2021/05/18 10:51:40;;;;;;;7.28;5.28;;;26.40;54.20;;;;;;4974592;28;20060;-77
2021/05/18 10:54:16;;;;;;;5.65;5.00;;;26.60;54.30;;;;;;5005770;28;20125;-77
2021/05/18 10:56:54;;;;;;;7.25;4.82;;;26.50;53.20;;;;;;4976176;28;20031;-78
2021/05/18 10:59:25;;;;;;;7.53;4.75;;;26.40;53.30;;;;;;4976512;28;20023;-78
2021/05/18 11:02:29;;;;;;;10.63;6.13;;;26.50;53.60;;;;;;4974888;28;20031;-77
2021/05/18 11:04:59;;;;;;;10.43;4.97;;;26.70;53.50;;;;;;4975610;28;20031;-77
2021/05/18 11:07:46;;;;;;;7.40;4.88;;;26.80;53.50;;;;;;4975109;28;20489;-78
2021/05/18 11:10:17;;;;;;;8.15;4.78;;;26.90;53.30;;;;;;4974991;28;20042;-77
2021/05/18 11:12:47;;;;;;;6.35;4.78;;;27.10;52.80;;;;;;4975112;28;20138;-77
2021/05/18 11:15:24;;;;;;;9.70;5.20;;;27.10;52.40;;;;;;4975066;28;20042;-76
2021/05/18 11:17:55;;;;;;;5.90;5.28;;;27.10;52.40;;;;;;4974736;28;20029;-80
2021/05/18 11:20:46;;;;;;;5.43;4.30;;;27.00;52.40;;;;;;4974827;28;20058;-78
2021/05/18 11:25:59;;;;;;;10.35;5.47;;;26.40;51.80;;;;;;4974684;28;20038;-78
2021/05/18 11:28:32;;;;;;;6.90;5.93;;;25.80;52.90;;;;;;4974335;28;20046;-78
2021/05/18 11:31:03;;;;;;;6.88;6.03;;;25.40;55.60;;;;;;4974557;28;20411;-77
2021/05/18 11:33:36;;;;;;;12.68;6.95;;;25.10;57.30;;;;;;4974299;28;20038;-77
2021/05/18 11:36:16;;;;;;;8.38;6.05;;;25.00;58.50;;;;;;4974611;28;20026;-78
2021/05/18 11:38:52;;;;;;;7.20;6.35;;;24.80;59.10;;;;;;4974264;28;20031;-73
2021/05/18 11:41:25;;;;;;;11.35;6.55;;;24.40;59.80;;;;;;4974025;28;20089;-73
2021/05/18 11:43:57;;;;;;;8.13;6.00;;;24.20;60.70;;;;;;4973969;28;20038;-72
2021/05/18 11:46:24;;;;;;;13.45;5.82;;;24.00;61.40;;;;;;4973745;28;20094;-72
2021/05/18 11:49:11;;;;;;;7.40;6.47;;;23.80;62.00;;;;;;4972772;28;20525;-72
2021/05/18 11:51:54;;;;;;;6.93;5.45;;;23.80;62.20;;;;;;4973827;28;20038;-73
2021/05/18 11:54:27;;;;;;;8.88;6.43;;;23.70;62.00;;;;;;4973239;28;20035;-73
2021/05/18 11:56:54;;;;;;;11.15;6.47;;;23.50;62.40;;;;;;4973895;28;20444;-72
2021/05/18 11:59:22;;;;;;;7.85;5.85;;;23.30;62.90;;;;;;4973808;28;20484;-72
2021/05/18 12:01:58;;;;;;;13.07;6.15;;;22.90;63.20;;;;;;4973815;28;20040;-72
2021/05/18 12:04:25;;;;;;;9.02;6.38;;;22.70;64.80;;;;;;4973732;28;20106;-72
2021/05/18 12:07:12;;;;;;;8.38;6.35;;;22.50;65.80;;;;;;4973598;28;20019;-71
2021/05/18 12:09:41;;;;;;;8.93;6.78;;;22.40;66.70;;;;;;4973435;28;20034;-73
2021/05/18 12:12:14;;;;;;;11.23;6.95;;;22.20;67.40;;;;;;4973753;28;20094;-72
2021/05/18 12:14:48;;;;;;;10.80;6.97;;;22.10;68.20;;;;;;4973759;28;20027;-71
2021/05/18 12:17:24;;;;;;;7.80;6.30;;;22.00;69.00;;;;;;5005137;28;20146;-72
2021/05/18 12:19:50;;;;;;;8.15;6.93;;;21.90;69.10;;;;;;4973430;28;20102;-72
2021/05/18 12:22:16;;;;;;;9.40;6.43;;;21.80;68.60;;;;;;5004730;28;20130;-72
2021/05/18 12:24:43;;;;;;;10.52;7.25;;;21.70;68.20;;;;;;4973162;28;20027;-72
2021/05/18 12:27:10;;;;;;;8.25;6.28;;;21.70;68.10;;;;;;4973018;28;20107;-73
2021/05/18 12:29:36;;;;;;;13.80;8.32;;;21.60;67.90;;;;;;4972592;28;20057;-72
2021/05/18 12:32:36;;;;;;;8.20;6.95;;;21.50;68.30;;;;;;4972770;28;20026;-72
2021/05/18 12:35:05;;;;;;;12.85;8.48;;;21.30;68.50;;;;;;4930360;28;20467;-73
2021/05/18 12:37:39;;;;;;;11.02;7.95;;;21.30;69.20;;;;;;4973426;28;20106;-72
2021/05/18 12:40:13;;;;;;;8.73;6.22;;;21.20;69.80;;;;;;4974268;28;20027;-73
2021/05/18 12:42:40;;;;;;;13.75;7.88;;;21.20;69.70;;;;;;4971869;28;20020;-71
2021/05/18 12:45:08;;;;;;;13.25;7.18;;;21.20;69.60;;;;;;4972531;28;20474;-72
2021/05/18 12:47:40;;;;;;;11.00;7.60;;;21.10;69.50;;;;;;4972695;28;20023;-71
2021/05/18 12:50:11;;;;;;;15.35;9.13;;;21.10;69.70;;;;;;4972662;28;20097;-73
2021/05/18 12:52:38;;;;;;;11.47;8.33;;;21.10;70.10;;;;;;4972277;28;20102;-71
2021/05/18 12:55:22;;;;;;;9.48;8.05;;;21.10;70.00;;;;;;4972160;28;20026;-72
2021/05/18 12:57:57;;;;;;;9.48;6.82;;;21.10;70.10;;;;;;4972016;28;20023;-72
2021/05/18 13:00:45;;;;;;;6.25;4.10;;;21.20;70.20;;;;;;4971176;28;20031;-72
2021/05/18 13:03:16;;;;;;;6.35;4.25;;;21.30;68.10;;;;;;4972033;28;20490;-73
2021/05/18 13:05:46;;;;;;;4.90;3.63;;;21.50;66.30;;;;;;4972472;28;20374;-72
2021/05/18 13:08:20;;;;;;;4.53;2.95;;;21.40;64.30;;;;;;4972187;28;20077;-72
2021/05/18 13:11:04;;;;;;;6.00;2.97;;;21.20;63.40;;;;;;4972517;28;20401;-73
2021/05/18 13:13:36;;;;;;;5.10;3.15;;;21.00;63.10;;;;;;4970949;28;20146;-73
2021/05/18 13:16:30;;;;;;;5.68;3.42;;;20.70;63.10;;;;;;4971735;28;20058;-72
2021/05/18 13:19:05;;;;;;;4.82;3.55;;;20.50;64.00;;;;;;4972501;28;20445;-71
2021/05/18 13:21:51;;;;;;;6.03;3.22;;;20.30;64.70;;;;;;4971870;28;20022;-73
2021/05/18 13:27:18;;;;;;;6.23;3.20;;;19.80;66.00;;;;;;4949625;29;20061;-73
2021/05/18 13:29:44;;;;;;;5.65;3.22;;;19.60;66.80;;;;;;4966895;28;20070;-72
2021/05/18 13:32:10;;;;;;;9.23;3.60;;;19.50;67.30;;;;;;4972026;28;20027;-74
2021/05/18 13:34:36;;;;;;;3.40;3.10;;;19.40;67.70;;;;;;4971852;28;20034;-72
2021/05/18 13:37:01;;;;;;;8.15;3.08;;;19.20;68.10;;;;;;4971821;28;20023;-73
2021/05/18 13:39:27;;;;;;;5.72;2.88;;;19.10;68.20;;;;;;4971693;28;20544;-73
2021/05/18 13:41:53;;;;;;;4.80;3.58;;;19.00;68.70;;;;;;4970569;28;20054;-72
2021/05/18 13:44:19;;;;;;;3.40;2.70;;;18.80;69.20;;;;;;4971738;28;20057;-73
2021/05/18 13:46:46;;;;;;;9.32;3.50;;;18.70;69.90;;;;;;4971985;28;20019;-73
2021/05/18 13:49:13;;;;;;;7.55;4.05;;;18.50;71.00;;;;;;4972000;28;20018;-78
2021/05/18 13:51:40;;;;;;;5.45;3.85;;;18.20;72.50;;;;;;4972040;28;20019;-78
2021/05/18 13:54:06;;;;;;;6.03;4.32;;;18.00;74.30;;;;;;4972144;28;20038;-78
2021/05/18 13:56:33;;;;;;;4.55;4.15;;;17.70;75.70;;;;;;4971931;28;20035;-78
2021/05/18 13:58:59;;;;;;;10.85;5.00;;;17.60;76.40;;;;;;4971833;28;20481;-78
2021/05/18 14:01:26;;;;;;;9.43;5.65;;;17.40;77.70;;;;;;4972053;28;20035;-79
2021/05/18 14:03:54;;;;;;;16.73;8.30;;;17.30;79.90;;;;;;4972154;28;20081;-78
2021/05/18 14:06:19;;;;;;;15.70;7.32;;;17.20;80.30;;;;;;4971783;28;20019;-79
2021/05/18 14:08:46;;;;;;;18.77;8.20;;;17.10;81.10;;;;;;4971448;28;20409;-78
2021/05/18 14:11:22;;;;;;;17.33;7.88;;;17.10;82.10;;;;;;4972148;28;20026;-78
2021/05/18 14:13:53;;;;;;;12.40;7.57;;;16.90;83.40;;;;;;4973669;28;20473;-78
2021/05/18 14:16:22;;;;;;;7.80;6.85;;;16.80;85.20;;;;;;4975934;28;20466;-76
2021/05/18 14:18:58;;;;;;;10.32;7.72;;;16.60;86.80;;;;;;4975340;28;20031;-77
2021/05/18 14:21:25;;;;;;;12.85;8.23;;;16.50;88.50;;;;;;4975680;28;20171;-78
2021/05/18 14:26:18;;;;;;;11.55;8.70;;;16.30;91.30;;;;;;4975328;28;20149;-78
2021/05/18 14:28:44;;;;;;;12.68;9.27;;;16.20;92.20;;;;;;4974987;28;20046;-77
2021/05/18 14:31:12;;;;;;;12.90;9.55;;;16.20;92.70;;;;;;4975351;28;20027;-77
2021/05/18 14:33:38;;;;;;;18.25;9.95;;;16.30;93.50;;;;;;4975424;28;20029;-77
2021/05/18 14:36:07;;;;;;;17.25;8.93;;;16.30;94.00;;;;;;4975367;28;20081;-78
2021/05/18 14:38:33;;;;;;;9.48;7.05;;;16.40;94.70;;;;;;4975198;28;20027;-77
2021/05/18 14:57:06;;;;;;;13.65;6.70;;;17.00;96.30;;;;;;4975419;28;20037;-78
2021/05/18 14:59:32;;;;;;;9.05;6.95;;;17.10;96.60;;;;;;4975316;28;20027;-79
2021/05/18 15:01:57;;;;;;;12.32;7.50;;;17.20;96.90;;;;;;4976026;28;20023;-79
2021/05/18 15:04:23;;;;;;;8.43;6.75;;;17.30;97.00;;;;;;4975268;28;20037;-79
2021/05/18 15:06:49;;;;;;;8.85;6.80;;;17.40;97.00;;;;;;4975400;28;20023;-78
2021/05/18 15:09:15;;;;;;;10.18;8.85;;;17.50;96.90;;;;;;4975096;28;20023;-79
2021/05/18 15:11:41;;;;;;;14.05;8.30;;;17.60;96.90;;;;;;4975625;28;20031;-79
2021/05/18 15:14:07;;;;;;;11.07;7.32;;;17.60;96.60;;;;;;4974926;28;20027;-77
2021/05/18 15:16:33;;;;;;;10.93;7.72;;;17.60;95.80;;;;;;4975218;28;20034;-80
2021/05/18 15:19:06;;;;;;;53.65;33.50;;;17.50;95.40;;;;;;4975285;28;20026;-73
2021/05/18 15:21:32;;;;;;;73.18;45.17;;;17.50;95.80;;;;;;4975017;28;20118;-70
2021/05/18 15:23:58;;;;;;;28.25;18.75;;;17.50;96.70;;;;;;4973222;28;20113;-71
2021/05/18 15:26:24;;;;;;;14.50;10.10;;;17.60;96.90;;;;;;4973233;28;20113;-70
2021/05/18 15:28:50;;;;;;;26.45;13.75;;;17.70;96.70;;;;;;4973871;28;20080;-71
2021/05/18 15:31:16;;;;;;;25.65;14.43;;;17.70;96.50;;;;;;4974556;28;20477;-76
2021/05/18 15:33:41;;;;;;;22.83;15.15;;;17.70;97.10;;;;;;4972902;28;20484;-78
2021/05/18 15:36:07;;;;;;;14.07;8.52;;;17.90;97.60;;;;;;4974506;28;20069;-76
2021/05/18 15:38:38;;;;;;;126.22;80.22;;;18.00;97.60;;;;;;4974281;28;20023;-76
2021/05/18 15:41:08;;;;;;;15.07;10.52;;;18.10;97.20;;;;;;4974321;28;20022;-75
2021/05/18 15:43:35;;;;;;;25.25;16.38;;;18.20;97.00;;;;;;4973978;28;20031;-76
2021/05/18 15:46:02;;;;;;;7.60;6.85;;;18.20;96.70;;;;;;4974069;28;20121;-76
2021/05/18 15:48:28;;;;;;;14.75;9.50;;;18.10;95.90;;;;;;4974280;28;20156;-76
2021/05/18 15:50:54;;;;;;;17.77;11.40;;;18.10;96.30;;;;;;4974461;28;20159;-76
2021/05/18 15:53:20;;;;;;;9.48;8.40;;;18.10;96.60;;;;;;4973802;28;20034;-76
2021/05/18 15:55:45;;;;;;;9.60;7.05;;;18.10;96.80;;;;;;4973950;28;20035;-76
2021/05/18 15:58:11;;;;;;;13.40;7.07;;;18.20;96.30;;;;;;4973815;28;20027;-76
2021/05/18 16:00:37;;;;;;;8.43;6.95;;;18.20;96.20;;;;;;4973877;28;20522;-78
2021/05/18 16:03:04;;;;;;;9.02;6.75;;;18.20;96.30;;;;;;4974045;28;20105;-77
2021/05/18 16:05:30;;;;;;;14.10;9.13;;;18.20;95.80;;;;;;4973687;28;20113;-76
2021/05/18 16:08:06;;;;;;;17.05;10.30;;;18.10;95.70;;;;;;4973913;28;20110;-75
2021/05/18 16:10:32;;;;;;;36.72;15.55;;;18.10;95.50;;;;;;4973701;28;20545;-77
2021/05/18 16:12:58;;;;;;;119.70;72.13;;;18.10;95.30;;;;;;4973450;28;20031;-76
2021/05/18 16:15:23;;;;;;;61.30;32.60;;;18.00;95.40;;;;;;4973294;28;20058;-76
2021/05/18 16:17:49;;;;;;;39.88;19.95;;;18.00;95.70;;;;;;4973387;28;20030;-77
2021/05/18 16:20:15;;;;;;;46.08;23.45;;;18.00;95.50;;;;;;4973510;28;20385;-76
2021/05/18 16:22:41;;;;;;;36.65;16.77;;;18.00;95.90;;;;;;4973385;28;20106;-76
2021/05/18 16:25:08;;;;;;;36.70;17.25;;;18.00;95.90;;;;;;4973286;28;20497;-76
2021/05/18 16:27:34;;;;;;;33.72;15.43;;;18.00;95.70;;;;;;4973016;28;20074;-77
2021/05/18 16:30:00;;;;;;;29.45;14.75;;;18.00;95.60;;;;;;4973453;28;20034;-76
2021/05/18 16:32:25;;;;;;;29.08;13.27;;;17.80;95.50;;;;;;4973453;28;20026;-76
2021/05/18 16:34:51;;;;;;;16.40;9.63;;;17.80;95.60;;;;;;4972924;28;20324;-77
2021/05/18 16:37:17;;;;;;;44.25;30.33;;;17.80;95.90;;;;;;4973115;28;20049;-76
2021/05/18 16:39:42;;;;;;;53.22;32.05;;;17.80;95.80;;;;;;4973343;28;20081;-77
2021/05/18 16:42:08;;;;;;;11.68;7.85;;;17.80;95.90;;;;;;4973130;28;20061;-77
2021/05/18 16:44:34;;;;;;;16.85;13.00;;;17.80;95.60;;;;;;4971736;28;20117;-75
2021/05/18 16:47:00;;;;;;;16.92;10.13;;;17.80;95.50;;;;;;4973084;28;20046;-76
2021/05/18 16:49:25;;;;;;;13.65;8.38;;;17.80;95.40;;;;;;4973024;28;20085;-76
2021/05/18 16:51:51;;;;;;;8.48;6.97;;;17.80;95.40;;;;;;4972997;28;20026;-76
2021/05/18 16:54:18;;;;;;;8.20;6.25;;;17.80;95.40;;;;;;4972878;28;20343;-76
2021/05/18 16:56:43;;;;;;;8.30;5.80;;;17.80;95.00;;;;;;4972717;28;20038;-77
2021/05/18 16:59:09;;;;;;;7.80;6.63;;;17.80;95.10;;;;;;4972971;28;20026;-77
2021/05/18 17:01:36;;;;;;;5.90;5.30;;;17.80;95.10;;;;;;4973058;28;20035;-76
2021/05/18 17:04:02;;;;;;;201.55;115.53;;;17.80;95.20;;;;;;4972637;28;20070;-76
2021/05/18 17:06:27;;;;;;;83.63;47.40;;;17.70;95.10;;;;;;4972459;28;20066;-75
2021/05/18 17:08:53;;;;;;;36.35;22.75;;;17.70;95.10;;;;;;4972522;28;20103;-77
2021/05/18 17:11:19;;;;;;;11.63;8.15;;;17.70;95.10;;;;;;4972739;28;20023;-77
2021/05/18 17:13:45;;;;;;;8.63;5.57;;;17.60;95.10;;;;;;4972680;28;20038;-77
2021/05/18 17:16:11;;;;;;;6.68;5.95;;;17.60;95.20;;;;;;4972840;28;20067;-76
2021/05/18 17:18:37;;;;;;;8.57;7.13;;;17.50;95.10;;;;;;4972903;28;20081;-71
2021/05/18 17:21:03;;;;;;;10.32;6.50;;;17.40;95.00;;;;;;4972699;28;20546;-71
2021/05/18 17:23:29;;;;;;;8.70;7.07;;;17.30;94.50;;;;;;4972014;28;20031;-71
2021/05/18 17:25:56;;;;;;;6.93;6.32;;;17.20;94.70;;;;;;4972318;28;20380;-70
2021/05/18 17:28:23;;;;;;;7.90;6.32;;;17.00;95.10;;;;;;4971998;28;20074;-71
2021/05/18 17:30:49;;;;;;;8.73;6.18;;;17.00;95.80;;;;;;4972529;28;20473;-71
2021/05/18 17:33:16;;;;;;;8.50;6.72;;;17.10;96.00;;;;;;4971201;28;20045;-72
2021/05/18 17:35:42;;;;;;;8.27;6.88;;;17.10;96.00;;;;;;4972366;28;20030;-71
2021/05/18 17:38:08;;;;;;;12.55;9.07;;;17.10;96.00;;;;;;4972177;28;20027;-72
2021/05/18 17:40:38;;;;;;;14.70;10.18;;;17.10;95.60;;;;;;4972099;28;20038;-71
2021/05/18 17:43:08;;;;;;;28.33;13.65;;;17.10;95.90;;;;;;4972246;28;20098;-70
2021/05/18 17:45:34;;;;;;;23.80;15.45;;;17.10;96.00;;;;;;4970284;28;20811;-71
2021/05/18 17:48:02;;;;;;;51.15;26.58;;;17.20;96.10;;;;;;4971940;28;20068;-71
2021/05/18 17:50:28;;;;;;;45.70;17.95;;;17.20;95.70;;;;;;4972571;28;20022;-71
2021/05/18 17:52:54;;;;;;;34.65;15.88;;;17.20;95.80;;;;;;4972095;28;20041;-71
2021/05/18 17:55:20;;;;;;;21.58;12.93;;;17.10;95.40;;;;;;4971970;28;20022;-71
2021/05/18 17:57:46;;;;;;;31.63;19.75;;;17.10;95.70;;;;;;4972039;28;20026;-72
2021/05/18 18:00:13;;;;;;;17.73;11.27;;;17.10;95.70;;;;;;4972429;28;20338;-71
2021/05/18 18:02:40;;;;;;;11.23;8.82;;;17.10;95.70;;;;;;4972195;28;20023;-71
2021/05/18 18:05:08;;;;;;;13.43;9.15;;;17.10;95.70;;;;;;4972165;28;20031;-72
2021/05/18 18:07:34;;;;;;;20.80;9.45;;;17.20;95.70;;;;;;4971940;28;20019;-72